sensor_id;sensor_type;location;lat;lon;timestamp;temperature;humidity
66920;DHT22;53831;52.090;17.026;2023-05-21T00:00:02;12.90;99.90
66920;DHT22;53831;52.090;17.026;2023-05-21T00:01:12;12.90;99.90
66920;DHT22;53831;52.090;17.026;2023-05-21T00:02:15;12.90;99.90
66920;DHT22;53831;52.090;17.026;2023-05-21T00:03:16;12.90;99.90
66920;DHT22;53831;52.090;17.026;2023-05-21T00:04:17;12.90;99.90
66920;DHT22;53831;52.090;17.026;2023-05-21T00:05:18;12.80;99.90
66920;DHT22;53831;52.090;17.026;2023-05-21T00:06:20;12.80;99.90
66920;DHT22;53831;52.090;17.026;2023-05-21T00:07:22;12.90;99.90
66920;DHT22;53831;52.090;17.026;2023-05-21T00:08:23;12.80;99.90
66920;DHT22;53831;52.090;17.026;2023-05-21T00:09:23;12.80;99.90
66920;DHT22;53831;52.090;17.026;2023-05-21T00:10:24;12.80;99.90
66920;DHT22;53831;52.090;17.026;2023-05-21T00:11:25;12.70;99.90
66920;DHT22;53831;52.090;17.026;2023-05-21T00:12:25;12.80;99.90
66920;DHT22;53831;52.090;17.026;2023-05-21T00:13:26;12.80;99.90
66920;DHT22;53831;52.090;17.026;2023-05-21T00:14:26;12.80;99.90
66920;DHT22;53831;52.090;17.026;2023-05-21T00:15:27;12.70;99.90
66920;DHT22;53831;52.090;17.026;2023-05-21T00:16:27;12.70;99.90
66920;DHT22;53831;52.090;17.026;2023-05-21T00:17:28;12.70;99.90
66920;DHT22;53831;52.090;17.026;2023-05-21T00:18:29;12.70;99.90
66920;DHT22;53831;52.090;17.026;2023-05-21T00:19:31;12.60;99.90
66920;DHT22;53831;52.090;17.026;2023-05-21T00:20:33;12.60;99.90
66920;DHT22;53831;52.090;17.026;2023-05-21T00:21:33;12.60;99.90
66920;DHT22;53831;52.090;17.026;2023-05-21T00:22:34;12.60;99.90
66920;DHT22;53831;52.090;17.026;2023-05-21T00:23:35;12.60;99.90
66920;DHT22;53831;52.090;17.026;2023-05-21T00:24:36;12.50;99.90
66920;DHT22;53831;52.090;17.026;2023-05-21T00:25:37;12.60;99.90
66920;DHT22;53831;52.090;17.026;2023-05-21T00:26:38;12.50;99.90
66920;DHT22;53831;52.090;17.026;2023-05-21T00:27:38;12.50;99.90
66920;DHT22;53831;52.090;17.026;2023-05-21T00:28:39;12.50;99.90
66920;DHT22;53831;52.090;17.026;2023-05-21T00:29:40;12.50;99.90
66920;DHT22;53831;52.090;17.026;2023-05-21T00:30:40;12.50;99.90
66920;DHT22;53831;52.090;17.026;2023-05-21T00:31:42;12.50;99.90
66920;DHT22;53831;52.090;17.026;2023-05-21T00:32:43;12.50;99.90
66920;DHT22;53831;52.090;17.026;2023-05-21T00:33:43;12.50;99.90
66920;DHT22;53831;52.090;17.026;2023-05-21T00:34:44;12.40;99.90
66920;DHT22;53831;52.090;17.026;2023-05-21T00:35:45;12.40;99.90
66920;DHT22;53831;52.090;17.026;2023-05-21T00:36:46;12.40;99.90
66920;DHT22;53831;52.090;17.026;2023-05-21T00:37:47;12.40;99.90
66920;DHT22;53831;52.090;17.026;2023-05-21T00:38:47;12.40;99.90
66920;DHT22;53831;52.090;17.026;2023-05-21T00:39:48;12.30;99.90
66920;DHT22;53831;52.090;17.026;2023-05-21T00:40:49;12.30;99.90
66920;DHT22;53831;52.090;17.026;2023-05-21T00:41:50;12.30;99.90
66920;DHT22;53831;52.090;17.026;2023-05-21T00:42:50;12.30;99.90
66920;DHT22;53831;52.090;17.026;2023-05-21T00:43:51;12.30;99.90
66920;DHT22;53831;52.090;17.026;2023-05-21T00:44:52;12.30;99.90
66920;DHT22;53831;52.090;17.026;2023-05-21T00:45:53;12.30;99.90
66920;DHT22;53831;52.090;17.026;2023-05-21T00:46:55;12.30;99.90
66920;DHT22;53831;52.090;17.026;2023-05-21T00:47:56;12.20;99.90
66920;DHT22;53831;52.090;17.026;2023-05-21T00:48:57;12.20;99.90
66920;DHT22;53831;52.090;17.026;2023-05-21T00:49:58;12.20;99.90
66920;DHT22;53831;52.090;17.026;2023-05-21T00:50:59;12.20;99.90
66920;DHT22;53831;52.090;17.026;2023-05-21T00:52:00;12.20;99.90
66920;DHT22;53831;52.090;17.026;2023-05-21T00:53:01;12.10;99.90
66920;DHT22;53831;52.090;17.026;2023-05-21T00:54:02;12.10;99.90
66920;DHT22;53831;52.090;17.026;2023-05-21T00:55:04;12.20;99.90
66920;DHT22;53831;52.090;17.026;2023-05-21T00:56:05;12.10;99.90
66920;DHT22;53831;52.090;17.026;2023-05-21T00:57:05;12.10;99.90
66920;DHT22;53831;52.090;17.026;2023-05-21T00:58:07;12.10;99.90
66920;DHT22;53831;52.090;17.026;2023-05-21T00:59:08;12.10;99.90
66920;DHT22;53831;52.090;17.026;2023-05-21T01:00:09;12.10;99.90
66920;DHT22;53831;52.090;17.026;2023-05-21T01:01:10;12.10;99.90
66920;DHT22;53831;52.090;17.026;2023-05-21T01:02:13;12.00;99.90
66920;DHT22;53831;52.090;17.026;2023-05-21T01:03:17;12.00;99.90
66920;DHT22;53831;52.090;17.026;2023-05-21T01:04:18;12.00;99.90
66920;DHT22;53831;52.090;17.026;2023-05-21T01:05:19;12.00;99.90
66920;DHT22;53831;52.090;17.026;2023-05-21T01:06:21;12.00;99.90
66920;DHT22;53831;52.090;17.026;2023-05-21T01:07:22;11.90;99.90
66920;DHT22;53831;52.090;17.026;2023-05-21T01:08:22;11.90;99.90
66920;DHT22;53831;52.090;17.026;2023-05-21T01:09:24;11.90;99.90
66920;DHT22;53831;52.090;17.026;2023-05-21T01:10:25;11.90;99.90
66920;DHT22;53831;52.090;17.026;2023-05-21T01:11:36;11.90;99.90
66920;DHT22;53831;52.090;17.026;2023-05-21T01:12:38;11.90;99.90
66920;DHT22;53831;52.090;17.026;2023-05-21T01:13:41;11.90;99.90
66920;DHT22;53831;52.090;17.026;2023-05-21T01:14:41;11.90;99.90
66920;DHT22;53831;52.090;17.026;2023-05-21T01:15:43;11.80;99.90
66920;DHT22;53831;52.090;17.026;2023-05-21T01:16:45;11.80;99.90
66920;DHT22;53831;52.090;17.026;2023-05-21T01:17:47;11.80;99.90
66920;DHT22;53831;52.090;17.026;2023-05-21T01:18:49;11.80;99.90
66920;DHT22;53831;52.090;17.026;2023-05-21T01:19:51;11.80;99.90
66920;DHT22;53831;52.090;17.026;2023-05-21T01:20:52;11.80;99.90
66920;DHT22;53831;52.090;17.026;2023-05-21T01:22:04;11.80;99.90
66920;DHT22;53831;52.090;17.026;2023-05-21T01:23:05;11.80;99.90
66920;DHT22;53831;52.090;17.026;2023-05-21T01:24:06;11.90;99.90
66920;DHT22;53831;52.090;17.026;2023-05-21T01:25:07;11.90;99.90
66920;DHT22;53831;52.090;17.026;2023-05-21T01:26:07;11.80;99.90
66920;DHT22;53831;52.090;17.026;2023-05-21T01:27:12;11.80;99.90
66920;DHT22;53831;52.090;17.026;2023-05-21T01:28:13;11.80;99.90
66920;DHT22;53831;52.090;17.026;2023-05-21T01:29:13;11.80;99.90
66920;DHT22;53831;52.090;17.026;2023-05-21T01:30:14;11.80;99.90
66920;DHT22;53831;52.090;17.026;2023-05-21T01:31:22;11.80;99.90
66920;DHT22;53831;52.090;17.026;2023-05-21T01:32:29;11.90;99.90
66920;DHT22;53831;52.090;17.026;2023-05-21T01:33:38;11.90;99.90
66920;DHT22;53831;52.090;17.026;2023-05-21T01:36:15;11.80;99.90
66920;DHT22;53831;52.090;17.026;2023-05-21T01:38:21;11.80;99.90
66920;DHT22;53831;52.090;17.026;2023-05-21T01:39:26;11.80;99.90
66920;DHT22;53831;52.090;17.026;2023-05-21T01:40:30;11.80;99.90
66920;DHT22;53831;52.090;17.026;2023-05-21T01:41:36;11.90;99.90
66920;DHT22;53831;52.090;17.026;2023-05-21T01:42:38;11.90;99.90
66920;DHT22;53831;52.090;17.026;2023-05-21T01:43:42;11.90;99.90
66920;DHT22;53831;52.090;17.026;2023-05-21T01:44:46;12.00;99.90
66920;DHT22;53831;52.090;17.026;2023-05-21T01:45:48;12.10;99.90
66920;DHT22;53831;52.090;17.026;2023-05-21T01:46:51;12.10;99.90
66920;DHT22;53831;52.090;17.026;2023-05-21T01:47:53;12.00;99.90
66920;DHT22;53831;52.090;17.026;2023-05-21T01:48:55;12.00;99.90
66920;DHT22;53831;52.090;17.026;2023-05-21T01:49:55;12.00;99.90
66920;DHT22;53831;52.090;17.026;2023-05-21T01:50:57;12.00;99.90
66920;DHT22;53831;52.090;17.026;2023-05-21T01:51:59;12.10;99.90
66920;DHT22;53831;52.090;17.026;2023-05-21T01:53:02;12.00;99.90
66920;DHT22;53831;52.090;17.026;2023-05-21T01:54:05;12.00;99.90
66920;DHT22;53831;52.090;17.026;2023-05-21T01:55:05;11.90;99.90
66920;DHT22;53831;52.090;17.026;2023-05-21T01:56:06;11.90;99.90
66920;DHT22;53831;52.090;17.026;2023-05-21T01:57:07;11.90;99.90
66920;DHT22;53831;52.090;17.026;2023-05-21T01:58:08;11.90;99.90
66920;DHT22;53831;52.090;17.026;2023-05-21T01:59:10;11.90;99.90
66920;DHT22;53831;52.090;17.026;2023-05-21T02:00:11;11.90;99.90
66920;DHT22;53831;52.090;17.026;2023-05-21T02:01:20;11.90;99.90
66920;DHT22;53831;52.090;17.026;2023-05-21T02:02:21;11.90;99.90
66920;DHT22;53831;52.090;17.026;2023-05-21T02:03:23;11.90;99.90
66920;DHT22;53831;52.090;17.026;2023-05-21T02:04:24;11.80;99.90
66920;DHT22;53831;52.090;17.026;2023-05-21T02:05:25;11.80;99.90
66920;DHT22;53831;52.090;17.026;2023-05-21T02:06:25;11.80;99.90
66920;DHT22;53831;52.090;17.026;2023-05-21T02:07:26;11.80;99.90
66920;DHT22;53831;52.090;17.026;2023-05-21T02:08:28;11.70;99.90
66920;DHT22;53831;52.090;17.026;2023-05-21T02:09:29;11.70;99.90
66920;DHT22;53831;52.090;17.026;2023-05-21T02:10:29;11.70;99.90
66920;DHT22;53831;52.090;17.026;2023-05-21T02:11:30;11.70;99.90
66920;DHT22;53831;52.090;17.026;2023-05-21T02:12:30;11.60;99.90
66920;DHT22;53831;52.090;17.026;2023-05-21T02:13:31;11.60;99.90
66920;DHT22;53831;52.090;17.026;2023-05-21T02:14:32;11.60;99.90
66920;DHT22;53831;52.090;17.026;2023-05-21T02:15:33;11.60;99.90
66920;DHT22;53831;52.090;17.026;2023-05-21T02:16:33;11.50;99.90
66920;DHT22;53831;52.090;17.026;2023-05-21T02:17:34;11.50;99.90
66920;DHT22;53831;52.090;17.026;2023-05-21T02:18:36;11.50;99.90
66920;DHT22;53831;52.090;17.026;2023-05-21T02:19:36;11.50;99.90
66920;DHT22;53831;52.090;17.026;2023-05-21T02:20:37;11.40;99.90
66920;DHT22;53831;52.090;17.026;2023-05-21T02:21:38;11.40;99.90
66920;DHT22;53831;52.090;17.026;2023-05-21T02:22:42;11.40;99.90
66920;DHT22;53831;52.090;17.026;2023-05-21T02:23:43;11.40;99.90
66920;DHT22;53831;52.090;17.026;2023-05-21T02:24:43;11.30;99.90
66920;DHT22;53831;52.090;17.026;2023-05-21T02:25:45;11.30;99.90
66920;DHT22;53831;52.090;17.026;2023-05-21T02:26:45;11.30;99.90
66920;DHT22;53831;52.090;17.026;2023-05-21T02:27:47;11.20;99.90
66920;DHT22;53831;52.090;17.026;2023-05-21T02:28:53;11.20;99.90
66920;DHT22;53831;52.090;17.026;2023-05-21T02:29:54;11.30;99.90
66920;DHT22;53831;52.090;17.026;2023-05-21T02:30:55;11.30;99.90
66920;DHT22;53831;52.090;17.026;2023-05-21T02:31:56;11.20;99.90
66920;DHT22;53831;52.090;17.026;2023-05-21T02:32:56;11.20;99.90
66920;DHT22;53831;52.090;17.026;2023-05-21T02:33:58;11.20;99.90
66920;DHT22;53831;52.090;17.026;2023-05-21T02:34:59;11.20;99.90
66920;DHT22;53831;52.090;17.026;2023-05-21T02:36:00;11.20;99.90
66920;DHT22;53831;52.090;17.026;2023-05-21T02:37:01;11.20;99.90
66920;DHT22;53831;52.090;17.026;2023-05-21T02:38:02;11.20;99.90
66920;DHT22;53831;52.090;17.026;2023-05-21T02:39:02;11.10;99.90
66920;DHT22;53831;52.090;17.026;2023-05-21T02:40:03;11.20;99.90
66920;DHT22;53831;52.090;17.026;2023-05-21T02:41:12;11.20;99.90
66920;DHT22;53831;52.090;17.026;2023-05-21T02:42:13;11.10;99.90
66920;DHT22;53831;52.090;17.026;2023-05-21T02:43:13;11.10;99.90
66920;DHT22;53831;52.090;17.026;2023-05-21T02:44:14;11.10;99.90
66920;DHT22;53831;52.090;17.026;2023-05-21T02:45:15;11.10;99.90
66920;DHT22;53831;52.090;17.026;2023-05-21T02:46:16;11.10;99.90
66920;DHT22;53831;52.090;17.026;2023-05-21T02:47:20;11.10;99.90
66920;DHT22;53831;52.090;17.026;2023-05-21T02:48:21;11.10;99.90
66920;DHT22;53831;52.090;17.026;2023-05-21T02:49:23;11.10;99.90
66920;DHT22;53831;52.090;17.026;2023-05-21T02:50:24;11.10;99.90
66920;DHT22;53831;52.090;17.026;2023-05-21T02:51:28;11.10;99.90
66920;DHT22;53831;52.090;17.026;2023-05-21T02:52:29;11.00;99.90
66920;DHT22;53831;52.090;17.026;2023-05-21T02:53:30;11.10;99.90
66920;DHT22;53831;52.090;17.026;2023-05-21T02:54:31;11.00;99.90
66920;DHT22;53831;52.090;17.026;2023-05-21T02:55:31;11.10;99.90
66920;DHT22;53831;52.090;17.026;2023-05-21T02:56:32;11.00;99.90
66920;DHT22;53831;52.090;17.026;2023-05-21T02:57:33;11.00;99.90
66920;DHT22;53831;52.090;17.026;2023-05-21T02:58:33;11.00;99.90
66920;DHT22;53831;52.090;17.026;2023-05-21T02:59:34;11.00;99.90
66920;DHT22;53831;52.090;17.026;2023-05-21T03:00:35;11.00;99.90
66920;DHT22;53831;52.090;17.026;2023-05-21T03:01:35;11.10;99.90
66920;DHT22;53831;52.090;17.026;2023-05-21T03:02:36;11.00;99.90
66920;DHT22;53831;52.090;17.026;2023-05-21T03:03:37;11.00;99.90
66920;DHT22;53831;52.090;17.026;2023-05-21T03:04:37;11.10;99.90
66920;DHT22;53831;52.090;17.026;2023-05-21T03:05:38;11.10;99.90
66920;DHT22;53831;52.090;17.026;2023-05-21T03:06:39;11.00;99.90
66920;DHT22;53831;52.090;17.026;2023-05-21T03:07:39;11.10;99.90
66920;DHT22;53831;52.090;17.026;2023-05-21T03:08:41;11.10;99.90
66920;DHT22;53831;52.090;17.026;2023-05-21T03:09:42;11.10;99.90
66920;DHT22;53831;52.090;17.026;2023-05-21T03:10:42;11.10;99.90
66920;DHT22;53831;52.090;17.026;2023-05-21T03:11:43;11.10;99.90
66920;DHT22;53831;52.090;17.026;2023-05-21T03:12:43;11.20;99.90
66920;DHT22;53831;52.090;17.026;2023-05-21T03:13:45;11.20;99.90
66920;DHT22;53831;52.090;17.026;2023-05-21T03:14:46;11.30;99.90
66920;DHT22;53831;52.090;17.026;2023-05-21T03:15:47;11.30;99.90
66920;DHT22;53831;52.090;17.026;2023-05-21T03:16:47;11.40;99.90
66920;DHT22;53831;52.090;17.026;2023-05-21T03:17:51;11.40;99.90
66920;DHT22;53831;52.090;17.026;2023-05-21T03:18:53;11.40;99.90
66920;DHT22;53831;52.090;17.026;2023-05-21T03:19:54;11.50;99.90
66920;DHT22;53831;52.090;17.026;2023-05-21T03:20:55;11.50;99.90
66920;DHT22;53831;52.090;17.026;2023-05-21T03:21:59;11.50;99.90
66920;DHT22;53831;52.090;17.026;2023-05-21T03:23:00;11.60;99.90
66920;DHT22;53831;52.090;17.026;2023-05-21T03:24:04;11.60;99.90
66920;DHT22;53831;52.090;17.026;2023-05-21T03:25:05;11.60;99.90
66920;DHT22;53831;52.090;17.026;2023-05-21T03:26:06;11.70;99.90
66920;DHT22;53831;52.090;17.026;2023-05-21T03:27:06;11.70;99.90
66920;DHT22;53831;52.090;17.026;2023-05-21T03:28:07;11.80;99.90
66920;DHT22;53831;52.090;17.026;2023-05-21T03:29:20;11.80;99.90
66920;DHT22;53831;52.090;17.026;2023-05-21T03:30:21;11.80;99.90
66920;DHT22;53831;52.090;17.026;2023-05-21T03:31:41;11.90;99.90
66920;DHT22;53831;52.090;17.026;2023-05-21T03:32:46;12.00;99.90
66920;DHT22;53831;52.090;17.026;2023-05-21T03:33:49;12.10;99.90
66920;DHT22;53831;52.090;17.026;2023-05-21T03:35:02;12.10;99.90
66920;DHT22;53831;52.090;17.026;2023-05-21T03:36:03;12.10;99.90
66920;DHT22;53831;52.090;17.026;2023-05-21T03:37:06;12.20;99.90
66920;DHT22;53831;52.090;17.026;2023-05-21T03:38:07;12.20;99.90
66920;DHT22;53831;52.090;17.026;2023-05-21T03:39:08;12.30;99.90
66920;DHT22;53831;52.090;17.026;2023-05-21T03:40:09;12.40;99.90
66920;DHT22;53831;52.090;17.026;2023-05-21T03:41:10;12.40;99.90
66920;DHT22;53831;52.090;17.026;2023-05-21T03:42:11;12.50;99.90
66920;DHT22;53831;52.090;17.026;2023-05-21T03:43:17;12.50;99.90
66920;DHT22;53831;52.090;17.026;2023-05-21T03:44:18;12.60;99.90
66920;DHT22;53831;52.090;17.026;2023-05-21T03:45:30;12.60;99.90
66920;DHT22;53831;52.090;17.026;2023-05-21T03:46:49;12.60;99.90
66920;DHT22;53831;52.090;17.026;2023-05-21T03:47:57;12.70;99.90
66920;DHT22;53831;52.090;17.026;2023-05-21T03:48:58;12.80;99.90
66920;DHT22;53831;52.090;17.026;2023-05-21T03:49:59;12.80;99.90
66920;DHT22;53831;52.090;17.026;2023-05-21T03:51:00;12.90;99.90
66920;DHT22;53831;52.090;17.026;2023-05-21T03:52:01;12.90;99.90
66920;DHT22;53831;52.090;17.026;2023-05-21T03:53:02;13.00;99.90
66920;DHT22;53831;52.090;17.026;2023-05-21T03:54:07;13.10;99.90
66920;DHT22;53831;52.090;17.026;2023-05-21T03:55:09;13.20;99.90
66920;DHT22;53831;52.090;17.026;2023-05-21T03:56:09;13.20;99.90
66920;DHT22;53831;52.090;17.026;2023-05-21T03:57:10;13.30;99.90
66920;DHT22;53831;52.090;17.026;2023-05-21T03:58:11;13.30;99.90
66920;DHT22;53831;52.090;17.026;2023-05-21T03:59:11;13.30;99.90
66920;DHT22;53831;52.090;17.026;2023-05-21T04:00:12;13.40;99.90
66920;DHT22;53831;52.090;17.026;2023-05-21T04:01:16;13.40;99.90
66920;DHT22;53831;52.090;17.026;2023-05-21T04:02:17;13.40;99.90
66920;DHT22;53831;52.090;17.026;2023-05-21T04:03:18;13.40;99.90
66920;DHT22;53831;52.090;17.026;2023-05-21T04:04:19;13.50;99.90
66920;DHT22;53831;52.090;17.026;2023-05-21T04:05:19;13.50;99.90
66920;DHT22;53831;52.090;17.026;2023-05-21T04:06:20;13.50;99.90
66920;DHT22;53831;52.090;17.026;2023-05-21T04:07:21;13.60;99.90
66920;DHT22;53831;52.090;17.026;2023-05-21T04:08:21;13.60;99.90
66920;DHT22;53831;52.090;17.026;2023-05-21T04:09:22;13.60;99.90
66920;DHT22;53831;52.090;17.026;2023-05-21T04:10:23;13.60;99.90
66920;DHT22;53831;52.090;17.026;2023-05-21T04:11:23;13.70;99.90
66920;DHT22;53831;52.090;17.026;2023-05-21T04:12:24;13.70;99.90
66920;DHT22;53831;52.090;17.026;2023-05-21T04:13:24;13.70;99.90
66920;DHT22;53831;52.090;17.026;2023-05-21T04:14:25;13.80;99.90
66920;DHT22;53831;52.090;17.026;2023-05-21T04:15:26;13.80;99.90
66920;DHT22;53831;52.090;17.026;2023-05-21T04:16:29;13.80;99.90
66920;DHT22;53831;52.090;17.026;2023-05-21T04:17:30;13.90;99.90
66920;DHT22;53831;52.090;17.026;2023-05-21T04:18:33;13.90;99.90
66920;DHT22;53831;52.090;17.026;2023-05-21T04:19:33;14.00;99.90
66920;DHT22;53831;52.090;17.026;2023-05-21T04:20:35;14.00;99.90
66920;DHT22;53831;52.090;17.026;2023-05-21T04:21:35;14.10;99.90
66920;DHT22;53831;52.090;17.026;2023-05-21T04:22:38;14.10;99.90
66920;DHT22;53831;52.090;17.026;2023-05-21T04:23:39;14.20;99.90
66920;DHT22;53831;52.090;17.026;2023-05-21T04:24:44;14.20;99.90
66920;DHT22;53831;52.090;17.026;2023-05-21T04:25:52;14.30;99.90
66920;DHT22;53831;52.090;17.026;2023-05-21T04:26:53;14.30;99.90
66920;DHT22;53831;52.090;17.026;2023-05-21T04:27:55;14.30;99.90
66920;DHT22;53831;52.090;17.026;2023-05-21T04:28:56;14.40;99.90
66920;DHT22;53831;52.090;17.026;2023-05-21T04:29:59;14.50;99.90
66920;DHT22;53831;52.090;17.026;2023-05-21T04:31:00;14.50;99.90
66920;DHT22;53831;52.090;17.026;2023-05-21T04:32:00;14.50;99.90
66920;DHT22;53831;52.090;17.026;2023-05-21T04:33:01;14.60;99.90
66920;DHT22;53831;52.090;17.026;2023-05-21T04:34:02;14.60;99.90
66920;DHT22;53831;52.090;17.026;2023-05-21T04:35:03;14.70;99.90
66920;DHT22;53831;52.090;17.026;2023-05-21T04:36:03;14.70;99.90
66920;DHT22;53831;52.090;17.026;2023-05-21T04:37:04;14.70;99.90
66920;DHT22;53831;52.090;17.026;2023-05-21T04:38:06;14.70;99.90
66920;DHT22;53831;52.090;17.026;2023-05-21T04:39:07;14.80;99.90
66920;DHT22;53831;52.090;17.026;2023-05-21T04:40:08;14.90;99.90
66920;DHT22;53831;52.090;17.026;2023-05-21T04:41:09;14.90;99.90
66920;DHT22;53831;52.090;17.026;2023-05-21T04:42:11;14.90;99.90
66920;DHT22;53831;52.090;17.026;2023-05-21T04:43:12;15.00;99.90
66920;DHT22;53831;52.090;17.026;2023-05-21T04:44:12;15.00;99.90
66920;DHT22;53831;52.090;17.026;2023-05-21T04:45:14;15.10;99.90
66920;DHT22;53831;52.090;17.026;2023-05-21T04:46:17;15.10;99.90
66920;DHT22;53831;52.090;17.026;2023-05-21T04:47:18;15.20;99.90
66920;DHT22;53831;52.090;17.026;2023-05-21T04:48:22;15.20;99.90
66920;DHT22;53831;52.090;17.026;2023-05-21T04:49:24;15.20;99.90
66920;DHT22;53831;52.090;17.026;2023-05-21T04:50:25;15.20;99.90
66920;DHT22;53831;52.090;17.026;2023-05-21T04:51:25;15.30;99.90
66920;DHT22;53831;52.090;17.026;2023-05-21T04:52:26;15.30;99.90
66920;DHT22;53831;52.090;17.026;2023-05-21T04:53:27;15.40;99.90
66920;DHT22;53831;52.090;17.026;2023-05-21T04:54:28;15.40;99.90
66920;DHT22;53831;52.090;17.026;2023-05-21T04:55:29;15.40;99.90
66920;DHT22;53831;52.090;17.026;2023-05-21T04:56:30;15.40;99.90
66920;DHT22;53831;52.090;17.026;2023-05-21T04:57:31;15.40;99.90
66920;DHT22;53831;52.090;17.026;2023-05-21T04:58:33;15.50;99.90
66920;DHT22;53831;52.090;17.026;2023-05-21T04:59:34;15.50;99.90
66920;DHT22;53831;52.090;17.026;2023-05-21T05:00:36;15.50;99.90
66920;DHT22;53831;52.090;17.026;2023-05-21T05:01:38;15.60;99.90
66920;DHT22;53831;52.090;17.026;2023-05-21T05:02:38;15.60;99.90
66920;DHT22;53831;52.090;17.026;2023-05-21T05:03:39;15.60;99.90
66920;DHT22;53831;52.090;17.026;2023-05-21T05:04:40;15.70;99.90
66920;DHT22;53831;52.090;17.026;2023-05-21T05:05:43;15.70;99.90
66920;DHT22;53831;52.090;17.026;2023-05-21T05:06:44;15.80;99.90
66920;DHT22;53831;52.090;17.026;2023-05-21T05:07:44;15.80;99.90
66920;DHT22;53831;52.090;17.026;2023-05-21T05:08:45;15.90;99.90
66920;DHT22;53831;52.090;17.026;2023-05-21T05:09:46;15.90;99.90
66920;DHT22;53831;52.090;17.026;2023-05-21T05:10:47;15.90;99.90
66920;DHT22;53831;52.090;17.026;2023-05-21T05:11:49;16.00;99.90
66920;DHT22;53831;52.090;17.026;2023-05-21T05:12:50;16.00;99.90
66920;DHT22;53831;52.090;17.026;2023-05-21T05:13:51;16.10;99.90
66920;DHT22;53831;52.090;17.026;2023-05-21T05:14:52;16.10;99.90
66920;DHT22;53831;52.090;17.026;2023-05-21T05:15:52;16.10;99.90
66920;DHT22;53831;52.090;17.026;2023-05-21T05:16:53;16.20;99.90
66920;DHT22;53831;52.090;17.026;2023-05-21T05:17:59;16.20;99.90
66920;DHT22;53831;52.090;17.026;2023-05-21T05:18:59;16.30;99.90
66920;DHT22;53831;52.090;17.026;2023-05-21T05:20:00;16.30;99.90
66920;DHT22;53831;52.090;17.026;2023-05-21T05:21:02;16.40;99.90
66920;DHT22;53831;52.090;17.026;2023-05-21T05:22:02;16.40;99.90
66920;DHT22;53831;52.090;17.026;2023-05-21T05:23:04;16.50;99.90
66920;DHT22;53831;52.090;17.026;2023-05-21T05:24:04;16.50;99.90
66920;DHT22;53831;52.090;17.026;2023-05-21T05:25:05;16.50;99.90
66920;DHT22;53831;52.090;17.026;2023-05-21T05:26:06;16.50;99.90
66920;DHT22;53831;52.090;17.026;2023-05-21T05:27:06;16.50;99.90
66920;DHT22;53831;52.090;17.026;2023-05-21T05:28:08;16.60;99.90
66920;DHT22;53831;52.090;17.026;2023-05-21T05:29:08;16.70;99.90
66920;DHT22;53831;52.090;17.026;2023-05-21T05:30:10;16.70;99.90
66920;DHT22;53831;52.090;17.026;2023-05-21T05:31:11;16.80;99.90
66920;DHT22;53831;52.090;17.026;2023-05-21T05:32:11;16.80;99.90
66920;DHT22;53831;52.090;17.026;2023-05-21T05:33:12;16.90;99.90
66920;DHT22;53831;52.090;17.026;2023-05-21T05:34:13;16.90;99.90
66920;DHT22;53831;52.090;17.026;2023-05-21T05:35:13;17.00;99.90
66920;DHT22;53831;52.090;17.026;2023-05-21T05:36:14;17.10;99.90
66920;DHT22;53831;52.090;17.026;2023-05-21T05:37:15;17.10;99.90
66920;DHT22;53831;52.090;17.026;2023-05-21T05:38:15;17.20;99.90
66920;DHT22;53831;52.090;17.026;2023-05-21T05:39:16;17.20;99.90
66920;DHT22;53831;52.090;17.026;2023-05-21T05:40:17;17.20;99.90
66920;DHT22;53831;52.090;17.026;2023-05-21T05:41:18;17.30;99.90
66920;DHT22;53831;52.090;17.026;2023-05-21T05:42:21;17.30;99.90
66920;DHT22;53831;52.090;17.026;2023-05-21T05:43:22;17.40;99.90
66920;DHT22;53831;52.090;17.026;2023-05-21T05:44:24;17.50;99.90
66920;DHT22;53831;52.090;17.026;2023-05-21T05:45:24;17.50;99.90
66920;DHT22;53831;52.090;17.026;2023-05-21T05:46:27;17.50;99.90
66920;DHT22;53831;52.090;17.026;2023-05-21T05:47:28;17.60;99.90
66920;DHT22;53831;52.090;17.026;2023-05-21T05:48:29;17.70;99.90
66920;DHT22;53831;52.090;17.026;2023-05-21T05:49:31;17.70;99.90
66920;DHT22;53831;52.090;17.026;2023-05-21T05:50:31;17.70;99.90
66920;DHT22;53831;52.090;17.026;2023-05-21T05:51:32;17.80;99.90
66920;DHT22;53831;52.090;17.026;2023-05-21T05:52:33;17.90;99.90
66920;DHT22;53831;52.090;17.026;2023-05-21T05:53:33;17.90;99.90
66920;DHT22;53831;52.090;17.026;2023-05-21T05:54:34;17.90;99.90
66920;DHT22;53831;52.090;17.026;2023-05-21T05:55:34;18.00;99.90
66920;DHT22;53831;52.090;17.026;2023-05-21T05:56:35;18.00;99.90
66920;DHT22;53831;52.090;17.026;2023-05-21T05:57:37;18.00;99.90
66920;DHT22;53831;52.090;17.026;2023-05-21T05:58:42;18.10;99.90
66920;DHT22;53831;52.090;17.026;2023-05-21T05:59:45;18.20;99.90
66920;DHT22;53831;52.090;17.026;2023-05-21T06:00:46;18.20;99.90
66920;DHT22;53831;52.090;17.026;2023-05-21T06:01:46;18.30;99.90
66920;DHT22;53831;52.090;17.026;2023-05-21T06:02:47;18.40;99.90
66920;DHT22;53831;52.090;17.026;2023-05-21T06:03:48;18.40;99.90
66920;DHT22;53831;52.090;17.026;2023-05-21T06:04:50;18.50;99.90
66920;DHT22;53831;52.090;17.026;2023-05-21T06:05:51;18.60;99.90
66920;DHT22;53831;52.090;17.026;2023-05-21T06:06:51;18.60;99.90
66920;DHT22;53831;52.090;17.026;2023-05-21T06:07:53;18.60;99.90
66920;DHT22;53831;52.090;17.026;2023-05-21T06:08:54;18.60;99.90
66920;DHT22;53831;52.090;17.026;2023-05-21T06:09:55;18.60;99.90
66920;DHT22;53831;52.090;17.026;2023-05-21T06:10:55;18.60;99.90
66920;DHT22;53831;52.090;17.026;2023-05-21T06:11:56;18.70;99.90
66920;DHT22;53831;52.090;17.026;2023-05-21T06:12:56;18.70;99.90
66920;DHT22;53831;52.090;17.026;2023-05-21T06:13:57;18.70;99.90
66920;DHT22;53831;52.090;17.026;2023-05-21T06:15:00;18.70;99.90
66920;DHT22;53831;52.090;17.026;2023-05-21T06:16:01;18.80;99.90
66920;DHT22;53831;52.090;17.026;2023-05-21T06:17:02;18.80;99.90
66920;DHT22;53831;52.090;17.026;2023-05-21T06:18:03;18.90;99.90
66920;DHT22;53831;52.090;17.026;2023-05-21T06:19:04;18.90;99.90
66920;DHT22;53831;52.090;17.026;2023-05-21T06:20:07;18.90;99.90
66920;DHT22;53831;52.090;17.026;2023-05-21T06:21:08;19.00;99.90
66920;DHT22;53831;52.090;17.026;2023-05-21T06:22:09;19.00;99.90
66920;DHT22;53831;52.090;17.026;2023-05-21T06:23:09;19.10;99.90
66920;DHT22;53831;52.090;17.026;2023-05-21T06:24:10;19.10;99.90
66920;DHT22;53831;52.090;17.026;2023-05-21T06:25:11;19.10;99.90